< Typhoon 198023 1980 Season Typhoon 198101 >
Typhoon 198024 (ED)
General InformationTrack Information on Google MapsDetailed Wind Information || Disaster Info.ResourceGoogle EarthGE AnimationAtom FeedGeoJSON
Detalied Best Track (Time Zone = UTC)
Year Month Day Hour Lat. Long. Pressure (hPa) Wind (kt) Class Image Chart
1980 12 14 18 11.6 133.0 1006 0 2 -- Chart
1980 12 15 00 11.6 132.3 1006 0 2 -- Chart
1980 12 15 06 11.8 131.6 1004 35 3 -- Chart
1980 12 15 12 12.0 130.8 1000 35 3 -- Chart
1980 12 15 18 12.2 130.1 998 35 3 -- Chart
1980 12 16 00 12.5 129.3 996 35 3 -- Chart
1980 12 16 06 12.7 128.6 992 40 3 -- Chart
1980 12 16 12 13.0 128.0 992 40 3 -- Chart
1980 12 16 18 13.4 127.7 990 45 3 -- Chart
1980 12 17 00 13.4 127.6 990 45 3 -- Chart
1980 12 17 06 13.4 127.3 990 45 3 -- Chart
1980 12 17 12 13.2 126.8 990 45 3 -- Chart
1980 12 17 18 13.5 127.2 992 45 3 -- Chart
1980 12 18 00 13.4 127.2 992 45 3 -- Chart
1980 12 18 06 13.5 127.2 992 45 3 -- Chart
1980 12 18 12 13.7 127.5 992 45 3 -- Chart
1980 12 18 18 13.9 127.5 992 45 3 -- Chart
1980 12 19 00 14.0 127.5 990 45 3 -- Chart
1980 12 19 06 13.9 127.3 990 45 3 -- Chart
1980 12 19 12 14.1 127.4 994 45 3 -- Chart
1980 12 19 18 14.6 127.8 998 40 3 -- Chart
1980 12 20 00 14.1 128.0 996 35 3 -- Chart
1980 12 20 06 14.0 128.0 996 35 3 -- Chart
1980 12 20 12 14.0 128.0 996 35 3 -- Chart
1980 12 20 18 14.0 128.0 998 0 2 -- Chart
1980 12 21 00 14.2 128.1 1000 0 2 -- Chart
1980 12 21 06 14.5 128.4 1002 0 2 -- Chart
Japan Meteorological Agency Best Track Data | Correction Date : 1992-10-21
< Typhoon 198023 1980 Season Typhoon 198101 >

Help